Terminal Aerodrome Forecast
Issued by NWS Wilmington, OH

Current Version | Previous Version | Graphics & Text | Print | Product List | Glossary On
Versions: 1 2 3 4 5 6 7 8 9 10 11 12 13 14 15 16 17 18 19 20 21 22 23
000
FTUS41 KILN 300500
TAFILN
TAF
KILN 300530Z 3006/3106 17005KT P6SM SKC
     FM301500 20009G16KT P6SM SCT045 BKN120
     FM302000 21012G19KT P6SM VCTS SCT040CB OVC120
     FM302300 22011KT P6SM SCT040 OVC100=

USA.gov is the U.S. government's official web portal to all federal, state and local government web resources and services.